Username:

Password:

Remember / Register
Jezyk polski English Nederlands Portuguese Spanish
Promoted fansite
Facebook Twitter Tibia Tunnel

3150
17880
6400
Share exp with lvls 400-902

Serafia

Check at Tibia.com
Nationality: - Set nationality
Vocation: Elder Druid
Level: 601 (~3,582,080,000exp)
World: Estela
Guild: -
Account status: Premium Account
Online: offline
Last month Current month Current week Mon Tue Wed Thu Fri Sat Sun
45min 0 0 0 0 0 0 0 0 0

# When Killed by Lvl Exp lost(*)
1 13-04-2019 00:40 a rage squid 596-34,079,607
2 12-03-2019 19:42 energy 585-32,268,191
3 12-03-2019 05:37 death 585-32,268,191
4 11-03-2019 19:13 energy 584-32,106,773
5 07-09-2018 23:30 an enslaved dwarf 559-28,244,093
6 14-08-2018 19:43 a draken spellweaver 549-26,790,161
7 10-08-2018 17:22 an elder wyrm 549-26,790,161
8 21-07-2018 10:23 an elder wyrm 544-26,082,275
9 19-07-2018 20:13 a true midnight asura 544-26,082,275
10 17-07-2018 20:25 a hellspawn 545-26,222,843
11 15-07-2018 22:32 a pit reaver 5450
12 15-07-2018 12:03 a vexclaw 544-26,082,275
13 14-07-2018 14:49 a pit reaver 5440
14 14-07-2018 10:56 a vicious squire 545-26,222,843
15 13-07-2018 18:27 a pit reaver 5450
16 05-07-2018 17:35 a lost basher 541-25,663,584
17 04-07-2018 20:29 a draken warmaster 542-25,802,646
18 25-06-2018 22:31 a hellhound 540-25,525,022
19 20-05-2018 16:37 a spidris elite 533-24,569,014
20 25-04-2018 22:20 Zamulosh 530-24,166,707
21 12-04-2018 17:18 a glooth anemone 530-24,166,707
22 03-04-2018 17:34 a behemoth 528-23,900,956
23 10-03-2018 16:14 a reality reaver 525-23,505,989
24 22-02-2018 23:08 The fire empowered Duke 524-23,375,306
25 31-01-2018 22:47 a pit reaver 5210
26 16-01-2018 17:37 a lost basher 519-22,729,145
27 08-01-2018 19:19 a diremaw 518-22,601,357
28 06-01-2018 14:16 charging Outburst 518-22,601,357
29 26-11-2017 12:10 energy 509-21,472,733
30 28-10-2017 11:55 a quara predator 507-21,227,135
31 28-10-2017 11:42 Zugurosh 508-21,349,699
32 22-10-2017 15:22 a draken warmaster 508-21,349,699
33 20-10-2017 16:56 earth 508-21,349,699
34 06-10-2017 17:01 a dark torturer 502-20,621,340
35 01-10-2017 16:12 energy 500-20,382,284
36 24-09-2017 15:37 a silencer 497-20,027,171
37 22-09-2017 16:08 a midnight asura 498-20,145,080
38 15-09-2017 09:48 energy 495-19,792,733
39 10-09-2017 22:24 earth 496-19,909,722
40 10-09-2017 12:34 a pit reaver 4950
41 10-09-2017 09:56 a pit reaver 4950
42 09-09-2017 16:18 a lost basher 494-19,676,202
43 09-09-2017 15:58 earth 494-19,676,202
44 08-09-2017 22:43 energy 493-19,560,130
45 08-09-2017 18:46 death 493-19,560,130
46 08-09-2017 11:20 a lost basher 492-19,444,514
47 07-09-2017 14:22 death 492-19,444,514
48 03-09-2017 14:32 a pit reaver 4910
49 03-09-2017 11:49 a pit reaver 4900
50 31-08-2017 16:11 a hellspawn 488-18,986,602
51 31-08-2017 15:55 energy 488-18,986,602
52 30-08-2017 19:49 a pit reaver 4870
53 30-08-2017 18:23 a war golem 488-18,986,602
54 29-08-2017 09:41 a pit reaver 4870
55 25-08-2017 13:22 a war golem 487-18,873,257
56 19-08-2017 13:06 a dark torturer 487-18,873,257
57 14-08-2017 18:58 a pit reaver 4840
58 13-08-2017 12:43 earth 484-18,535,928
59 11-08-2017 18:08 a pit reaver 4840
60 10-08-2017 20:55 a pit reaver 4830
61 10-08-2017 16:08 a pit reaver 4830
62 09-08-2017 18:21 a minotaur amazon 483-18,424,384
63 09-08-2017 18:08 death 483-18,424,384
64 09-08-2017 17:13 a pit reaver 4830
65 09-08-2017 15:48 death 483-18,424,384
66 09-08-2017 13:10 a pit reaver 4830
67 07-08-2017 12:43 a pit reaver 4830
68 07-08-2017 11:31 earth 483-18,424,384
69 06-08-2017 16:08 energy 483-18,424,384
70 06-08-2017 15:14 a pit reaver 4830
71 04-08-2017 14:53 energy 482-18,313,287
72 04-08-2017 09:25 death 482-18,313,287
73 03-08-2017 18:09 a pit reaver 4820
74 03-08-2017 13:31 a high voltage elemental 482-18,313,287
75 03-08-2017 10:14 energy 481-18,202,638
76 31-07-2017 18:28 a pit reaver 4800
77 29-07-2017 12:38 energy 480-18,092,435
78 29-07-2017 12:01 a pit reaver 4800
79 27-07-2017 12:08 energy 479-17,982,677
80 27-07-2017 09:25 earth 479-17,982,677
81 27-07-2017 09:08 a pit reaver 4790
82 26-07-2017 10:39 a pit reaver 4790
83 26-07-2017 09:49 a pit reaver 4790
84 25-07-2017 14:18 earth 479-17,982,677
85 25-07-2017 13:33 earth 479-17,982,677
86 25-07-2017 12:28 earth 478-17,873,363
87 25-07-2017 09:36 a pit reaver 4780
88 23-07-2017 14:18 energy 478-17,873,363
89 21-07-2017 19:36 a pit reaver 4770
90 14-07-2017 10:46 energy 476-17,656,065
91 09-07-2017 14:01 a pit reaver 4760
92 07-07-2017 19:32 death 475-17,548,079
93 01-07-2017 18:47 earth 474-17,440,533
94 22-06-2017 13:24 a drillworm 471-17,120,532
95 12-06-2017 23:40 a pit reaver 4690
96 10-06-2017 16:14 energy 468-16,804,465
97 09-06-2017 18:21 energy 467-16,699,979
98 09-06-2017 16:08 a pit reaver 4670
99 05-06-2017 22:59 a pit reaver 4660
100 02-06-2017 09:53 a frazzlemaw 466-16,595,927
101 31-05-2017 17:16 energy 467-16,699,979
102 30-05-2017 10:49 earth 466-16,595,927
103 28-05-2017 21:37 a pit reaver 4650
104 26-05-2017 15:56 death 465-16,492,307
105 26-05-2017 10:44 energy 465-16,492,307
106 25-05-2017 12:44 energy 464-16,389,119
107 25-05-2017 09:15 earth 464-16,389,119
108 24-05-2017 17:41 earth 464-16,389,119
109 22-05-2017 21:53 earth 464-16,389,119
110 22-05-2017 19:59 earth 464-16,389,119
111 20-05-2017 13:27 energy 463-16,286,362
112 08-05-2017 21:18 a pit reaver 4610
113 08-05-2017 00:49 energy 461-16,082,136
114 07-05-2017 23:54 a pit reaver 4600
115 07-05-2017 22:33 earth 460-15,980,666
116 06-05-2017 22:55 earth 459-15,879,623
117 06-05-2017 21:40 a pit reaver 4590
118 06-05-2017 10:10 a pit reaver 4580
119 15-03-2017 14:16 a werebadger 453-15,282,286
120 27-02-2017 19:37 a lost basher 448-14,796,088
121 20-02-2017 19:51 a guzzlemaw 447-14,700,101
122 19-02-2017 12:19 a frazzlemaw 447-14,700,101
123 08-02-2017 11:38 a rustheap golem 445-14,509,373
124 05-02-2017 20:58 an enthralled demon 445-14,509,373
125 02-02-2017 16:50 a retching horror 444-14,414,630
126 29-01-2017 12:33 a guzzlemaw 445-14,509,373
127 19-01-2017 21:27 a minion of Gaz'haragoth 443-14,320,300
128 15-01-2017 23:15 Greed 433-13,399,504
129 03-01-2017 14:32 reality reaver 429-13,042,517
130 27-12-2016 16:40 a lizard legionnaire 428-12,954,271
131 26-12-2016 12:51 a lost basher 426-12,778,973
132 26-12-2016 12:10 a lost basher 427-12,866,423
133 25-12-2016 23:26 a devourer 428-12,954,271
134 25-12-2016 22:11 a glooth anemone 429-13,042,517
135 23-12-2016 20:26 a frazzlemaw 428-12,954,271
136 18-12-2016 10:32 a behemoth 427-12,866,423
137 09-12-2016 17:26 a grim reaper 422-12,433,128
138 02-12-2016 17:26 a glooth anemone 421-12,347,652
139 02-12-2016 13:29 a minotaur invader 421-12,347,652
140 02-12-2016 13:25 a glooth powered minotaur 423-12,518,998
141 02-12-2016 12:18 a glooth powered minotaur 422-12,433,128
142 01-12-2016 10:32 a moohtant 422-12,433,128
143 01-12-2016 10:21 a minotaur invader 422-12,433,128
144 30-11-2016 19:38 a glooth anemone 422-12,433,128
145 30-11-2016 16:20 an execowtioner 422-12,433,128
146 29-11-2016 10:33 a moohtant 421-12,347,652
147 29-11-2016 10:17 an execowtioner 421-12,347,652
148 28-11-2016 19:35 a glooth anemone 421-12,347,652
149 28-11-2016 19:29 a glooth anemone 421-12,347,652
150 28-11-2016 15:28 a moohtant 421-12,347,652
151 28-11-2016 14:23 a glooth powered minotaur 421-12,347,652
152 28-11-2016 13:27 a glooth powered minotaur 421-12,347,652
153 28-11-2016 13:20 a moohtant 421-12,347,652
154 28-11-2016 10:18 a glooth brigand 421-12,347,652
155 27-11-2016 19:09 a guzzlemaw 421-12,347,652
156 27-11-2016 19:01 a guzzlemaw 422-12,433,128
157 27-11-2016 12:30 a glooth anemone 422-12,433,128
158 27-11-2016 12:25 a glooth blob 422-12,433,128
159 23-11-2016 17:44 a guzzlemaw 423-12,518,998
160 21-11-2016 20:46 a dread intruder 423-12,518,998
161 21-11-2016 19:24 a minotaur invader 423-12,518,998
162 21-11-2016 09:18 a minotaur invader 422-12,433,128
163 20-11-2016 23:38 a serpent spawn 422-12,433,128
164 20-11-2016 23:23 a serpent spawn 422-12,433,128
165 20-11-2016 22:15 an execowtioner 422-12,433,128
166 20-11-2016 13:30 a worm priestess 422-12,433,128
167 19-11-2016 13:58 a guzzlemaw 421-12,347,652
168 19-11-2016 13:28 a silencer 421-12,347,652
169 17-11-2016 14:18 a dark torturer 420-12,262,568
170 16-11-2016 09:31 a moohtant 420-12,262,568
171 11-11-2016 19:24 a minotaur amazon 419-12,177,875
172 04-11-2016 17:20 a minotaur invader 417-12,009,659
173 27-10-2016 10:32 a guzzlemaw 415-11,842,997
174 27-10-2016 10:20 a glooth powered minotaur 416-11,926,134
175 11-10-2016 22:19 a behemoth 414-11,760,246
176 09-10-2016 20:10 a guzzlemaw 413-11,677,882
177 09-10-2016 13:26 an elder wyrm 414-11,760,246
178 04-10-2016 21:21 a drillworm 414-11,760,246
179 08-09-2016 10:18 a devourer 416-11,926,134
180 20-08-2016 10:25 a souleater 417-12,009,659
181 05-08-2016 13:26 a glooth golem 420-12,262,568
182 24-07-2016 12:45 a guzzlemaw 421-12,347,652
183 23-07-2016 15:28 an elder wyrm 422-12,433,128
184 10-07-2016 13:34 a souleater 424-12,605,261
185 01-07-2016 20:39 a frazzlemaw 423-12,518,998
186 16-06-2016 11:42 a frazzlemaw 417-12,009,659
187 16-06-2016 11:34 a guzzlemaw 419-12,177,875
188 13-06-2016 20:47 a guzzlemaw 421-12,347,652
189 07-06-2016 23:37 a mooh'tah warrior 420-12,262,568
190 29-05-2016 11:30 a guzzlemaw 417-12,009,659
191 18-05-2016 01:00 a lost thrower 412-11,595,902
192 06-05-2016 21:40 a dark torturer 404-10,953,812
193 06-05-2016 18:18 a behemoth 405-11,032,745
194 04-05-2016 08:24 a glooth anemone 402-10,797,075
195 03-05-2016 12:00 a guzzlemaw 402-10,797,075
196 18-03-2016 22:23 a draken warmaster 397-10,411,781
197 18-03-2016 20:52 a guzzlemaw 398-10,488,095
198 04-03-2016 16:37 a guzzlemaw 397-10,411,781
199 01-02-2016 11:57 a hydra 388-9,741,517
200 16-01-2016 22:25 a demon 387-9,668,867
201 30-12-2015 14:02 a choking fear 374-8,756,988
202 27-12-2015 13:31 Mawhawk 373-8,689,318
203 13-12-2015 14:22 a lizard high guard 369-8,422,115
204 29-10-2015 15:28 a glooth bandit 350-7,227,366
205 14-10-2015 11:56 a silencer 344-6,874,985
206 02-10-2015 09:56 a silencer 335-6,368,141
207 27-09-2015 17:25 a dragon hatchling 332-6,204,890
208 31-08-2015 15:04 a lizard high guard 321-5,630,142
209 26-06-2015 09:50 a lizard dragon priest 311-5,139,396
210 21-06-2015 14:45 a guzzlemaw 311-5,139,396
211 07-06-2015 13:13 a silencer 307-4,951,355
212 25-05-2015 09:47 a silencer 299-4,589,111
213 26-04-2015 18:44 a guzzlemaw 283-3,918,364
214 12-04-2015 16:22 a frazzlemaw 277-3,684,713
215 04-04-2015 15:05 a guzzlemaw 271-3,460,512
216 02-04-2015 14:58 a lizard high guard 269-3,387,845
217 31-03-2015 20:32 earth 268-3,351,895
218 22-03-2015 15:00 a frazzlemaw 265-3,245,567
219 02-03-2015 15:56 a lizard high guard 256-2,940,078
220 07-02-2015 22:09 a hellspawn 247-2,654,321
221 17-01-2015 18:28 a demon 241-2,474,454
222 14-01-2015 12:23 a demon 240-2,445,287
223 14-01-2015 10:44 Zefroith (*)Check at Tibia.com 240-2,445,287
224 05-01-2015 17:44 Ves Mestor (*)Check at Tibia.com 238-2,387,639
225 04-01-2015 11:53 Serafia (*)Check at Tibia.com 238-2,387,639
226 01-01-2015 20:09 a demon 234-2,275,065
227 30-12-2014 11:42 Sebbe Nocturna (*)Check at Tibia.com 229-2,139,377
228 29-12-2014 20:35 a behemoth 230-2,166,072
229 27-12-2014 15:56 a draken warmaster 228-2,112,901
230 18-12-2014 10:09 a draken spellweaver 222-1,958,598
231 09-12-2014 15:54 a draken warmaster 215-1,788,257
232 04-12-2014 21:26 a choking fear 213-1,741,462
233 02-12-2014 16:38 a guzzlemaw 211-1,695,486
234 30-11-2014 19:39 Spontanka (*)Check at Tibia.com 210-1,672,803
235 26-11-2014 21:29 a draken abomination 208-1,628,044
236 25-11-2014 19:34 a lizard chosen 208-1,628,044
237 25-11-2014 10:58 Wivivol (*)Check at Tibia.com 207-1,605,965
238 22-11-2014 20:12 a behemoth 207-1,605,965
239 19-11-2014 19:18 a humorless fungus 205-1,562,405
240 11-11-2014 17:04 Giro Kuna (*)Check at Tibia.com 198-1,416,125
241 11-11-2014 16:32 Claho Ther (*)Check at Tibia.com 198-1,416,125
242 09-11-2014 23:07 a lizard chosen 197-1,396,001
243 02-11-2014 17:10 Ashmunrah 190-1,260,414
244 29-10-2014 11:52 a frazzlemaw 179-1,065,467
245 26-10-2014 22:26 Strayger (*)Check at Tibia.com 176-1,016,010
246 26-10-2014 22:25 Frankie Lymon (*)Check at Tibia.com 176-1,016,010
247 05-10-2014 22:00 a mutated bat 163-819,232
248 02-10-2014 17:09 Xavves (*)Check at Tibia.com 159-764,213
249 26-09-2014 12:32 a behemoth 151-661,620
250 26-09-2014 12:02 a carniphila 152-673,913
251 23-09-2014 21:00 a demon 150-649,476
252 19-09-2014 14:56 a lizard legionnaire 146-602,375
253 18-09-2014 17:16 a lizard chosen 146-602,375
254 15-09-2014 20:32 a lizard chosen 143-568,570
255 08-09-2014 17:42 a lizard chosen 134-474,720
256 06-09-2014 22:07 a lizard chosen 132-455,360
257 30-08-2014 17:59 a lancer beetle 124-383,126
258 19-08-2014 11:26 Flamecaller Zazrak 119-342,065
259 16-06-2014 17:12 Loose Mucho Tanko (*)Check at Tibia.com 111-282,576
260 14-06-2014 13:41 Kathameri Troslan (*)Check at Tibia.com 108-262,159
261 13-06-2014 16:00 a frazzlemaw 109-268,853
262 12-06-2014 21:48 a lizard high guard 108-262,159
263 07-06-2014 18:21 a frazzlemaw 100-212,504
264 06-06-2014 17:53 a lizard chosen 98-201,140
265 04-06-2014 17:14 a lizard high guard 96-190,182
266 04-06-2014 16:36 a frazzlemaw 96-190,182
267 02-06-2014 21:55 Hardpunch (*)Check at Tibia.com 93-174,490
268 30-05-2014 08:24 Evul Zair (*)Check at Tibia.com 87-145,697
269 20-04-2014 14:49 Serafia (*)Check at Tibia.com 54-41,004
270 18-04-2014 22:31 Brous Zanarka (*)Check at Tibia.com 49-31,811
271 17-04-2014 15:25 Powstaniec Zgalany (*)Check at Tibia.com 47-28,541
272 16-04-2014 22:45 Appuchi Maniako (*)Check at Tibia.com 46-26,990
273 16-04-2014 10:09 Serafia (*)Check at Tibia.com 44-24,050
274 13-04-2014 21:21 fire 36-14,331
275 13-04-2014 17:36 a behemoth 35-13,331
276 13-04-2014 13:43 Serafia (*)Check at Tibia.com 35-13,331
277 13-04-2014 13:06 a vampire 34-12,375
278 10-04-2014 09:28 a feverish citizen 9-128
279 09-04-2014 23:00 a larva 8-84
280 09-04-2014 17:52 Kraknaknork's demon 2-2

Number of death: 280
Experience lost: 2,891,627,439
Level of character without dying: 731
Killed by players: 21

No blacklist entries.


Login to add report

Search guild or character